createdAt,value
2019-03-25T00:00:01.740Z,0
2019-03-25T00:01:01.968Z,0
2019-03-25T00:02:01.956Z,0
2019-03-25T00:03:02.189Z,0
2019-03-25T00:04:01.969Z,0
2019-03-25T00:05:02.161Z,0
2019-03-25T00:06:01.893Z,0
2019-03-25T00:07:02.120Z,0
2019-03-25T00:08:02.108Z,0
2019-03-25T00:09:14.310Z,0
2019-03-25T00:10:01.826Z,0
2019-03-25T00:11:02.064Z,0
2019-03-25T00:12:02.047Z,0
2019-03-25T00:13:02.027Z,0
2019-03-25T00:14:02.018Z,0
2019-03-25T00:15:01.996Z,0
2019-03-25T00:16:03.710Z,0
2019-03-25T00:17:01.961Z,0
2019-03-25T00:18:01.700Z,0
2019-03-25T00:19:01.930Z,0
2019-03-25T00:20:01.916Z,0
2019-03-25T00:21:01.903Z,0
2019-03-25T00:22:01.665Z,0
2019-03-25T00:23:01.881Z,0
2019-03-25T00:24:01.607Z,0
2019-03-25T00:25:01.851Z,0
2019-03-25T00:26:01.590Z,0
2019-03-25T00:27:01.598Z,0
2019-03-25T00:28:01.813Z,0
2019-03-25T00:29:01.293Z,0
2019-03-25T00:30:01.763Z,0
2019-03-25T00:31:01.261Z,0
2019-03-25T00:32:01.729Z,0
2019-03-25T00:33:01.730Z,0
2019-03-25T00:34:01.710Z,0
2019-03-25T00:35:01.696Z,0
2019-03-25T00:36:01.721Z,0
2019-03-25T00:37:01.411Z,0
2019-03-25T00:38:01.641Z,0
2019-03-25T00:39:01.376Z,0
2019-03-25T00:40:01.607Z,0
2019-03-25T00:41:01.601Z,0
2019-03-25T00:42:01.600Z,0
2019-03-25T00:43:01.573Z,0
2019-03-25T00:44:01.300Z,0
2019-03-25T00:45:01.533Z,0
2019-03-25T00:46:01.516Z,0
2019-03-25T00:47:01.009Z,0
2019-03-25T00:48:01.490Z,0
2019-03-25T00:49:01.221Z,0
2019-03-25T00:50:01.599Z,0
2019-03-25T00:51:01.439Z,0
2019-03-25T00:52:01.418Z,0
2019-03-25T00:53:01.405Z,0
2019-03-25T00:54:01.390Z,0
2019-03-25T00:55:01.280Z,0
2019-03-25T00:56:01.369Z,0
2019-03-25T00:57:01.381Z,0
2019-03-25T00:58:01.079Z,0
2019-03-25T00:59:01.318Z,0
2019-03-25T01:00:01.303Z,0
2019-03-25T01:01:01.048Z,0
2019-03-25T01:02:01.269Z,0
2019-03-25T01:03:01.255Z,0
2019-03-25T01:04:01.230Z,0
2019-03-25T01:05:00.971Z,0
2019-03-25T01:06:01.207Z,0
2019-03-25T01:07:01.183Z,0
2019-03-25T01:08:01.171Z,0
2019-03-25T01:09:01.151Z,0
2019-03-25T01:10:01.139Z,0
2019-03-25T01:11:01.123Z,0
2019-03-25T01:12:00.865Z,0
2019-03-25T01:13:00.839Z,0
2019-03-25T01:14:01.075Z,0
2019-03-25T01:15:00.814Z,0
2019-03-25T01:16:01.045Z,0
2019-03-25T01:17:01.028Z,0
2019-03-25T01:18:00.771Z,0
2019-03-25T01:19:00.990Z,0
2019-03-25T01:20:00.984Z,0
2019-03-25T01:21:00.485Z,0
2019-03-25T01:22:00.700Z,0
2019-03-25T01:23:00.940Z,0
2019-03-25T01:24:00.667Z,0
2019-03-25T01:25:11.226Z,0
2019-03-25T01:26:00.881Z,0
2019-03-25T01:27:00.877Z,0
2019-03-25T01:28:00.601Z,0
2019-03-25T01:29:00.837Z,0
2019-03-25T01:30:00.815Z,0
2019-03-25T01:31:00.798Z,0
2019-03-25T01:32:00.791Z,0
2019-03-25T01:33:00.768Z,0
2019-03-25T01:34:00.760Z,0
2019-03-25T01:35:00.560Z,0
2019-03-25T01:36:00.727Z,0
2019-03-25T01:37:00.210Z,0
2019-03-25T01:38:00.187Z,0
2019-03-25T01:39:00.691Z,0
2019-03-25T01:40:00.492Z,0
2019-03-25T01:41:00.387Z,0
2019-03-25T01:42:00.372Z,0
2019-03-25T01:43:00.614Z,0
2019-03-25T01:44:00.590Z,0
2019-03-25T01:45:00.569Z,0
2019-03-25T01:46:00.321Z,0
2019-03-25T01:47:00.545Z,0
2019-03-25T01:48:00.529Z,0
2019-03-25T01:49:00.505Z,0
2019-03-25T01:50:00.543Z,0
2019-03-25T01:51:00.233Z,0
2019-03-25T01:52:00.466Z,0
2019-03-25T01:53:00.442Z,0
2019-03-25T01:54:00.179Z,0
2019-03-25T01:55:00.407Z,0
2019-03-25T01:56:00.397Z,0
2019-03-25T01:56:59.893Z,0
2019-03-25T01:58:00.110Z,0
2019-03-25T01:59:00.113Z,0
2019-03-25T02:00:00.084Z,0
2019-03-25T02:01:00.316Z,0
2019-03-25T02:02:00.298Z,0
2019-03-25T02:03:00.033Z,0
2019-03-25T02:04:00.264Z,0
2019-03-25T02:05:00.355Z,0
2019-03-25T02:06:00.223Z,0
2019-03-25T02:07:00.206Z,0
2019-03-25T02:07:59.948Z,0
2019-03-25T02:09:00.172Z,0
2019-03-25T02:10:00.195Z,0
2019-03-25T02:11:00.154Z,0
2019-03-25T02:12:00.127Z,0
2019-03-25T02:13:00.107Z,0
2019-03-25T02:14:00.088Z,0
2019-03-25T02:15:00.110Z,0
2019-03-25T02:16:00.066Z,0
2019-03-25T02:16:59.800Z,0
2019-03-25T02:18:00.043Z,0
2019-03-25T02:19:00.012Z,0
2019-03-25T02:19:59.993Z,0
2019-03-25T02:20:59.975Z,0
2019-03-25T02:21:59.971Z,0
2019-03-25T02:23:01.029Z,0
2019-03-25T02:23:59.930Z,0
2019-03-25T02:24:59.919Z,0
2019-03-25T02:25:59.684Z,0
2019-03-25T02:26:59.384Z,0
2019-03-25T02:27:59.613Z,0
2019-03-25T02:28:59.839Z,0
2019-03-25T02:29:59.886Z,0
2019-03-25T02:30:59.582Z,0
2019-03-25T02:31:59.801Z,0
2019-03-25T02:32:59.808Z,0
2019-03-25T02:33:59.772Z,0
2019-03-25T02:34:59.788Z,0
2019-03-25T02:35:59.752Z,0
2019-03-25T02:36:59.759Z,0
2019-03-25T02:37:59.724Z,0
2019-03-25T02:38:59.692Z,0
2019-03-25T02:39:59.684Z,0
2019-03-25T02:40:59.405Z,0
2019-03-25T02:41:59.427Z,0
2019-03-25T02:42:59.703Z,0
2019-03-25T02:43:59.364Z,0
2019-03-25T02:44:59.347Z,0
2019-03-25T02:45:59.559Z,0
2019-03-25T02:46:59.546Z,0
2019-03-25T02:47:59.454Z,0
2019-03-25T02:48:59.521Z,0
2019-03-25T02:49:59.261Z,0
2019-03-25T02:50:59.003Z,0
2019-03-25T02:51:59.474Z,0
2019-03-25T02:52:59.447Z,0
2019-03-25T02:53:59.426Z,0
2019-03-25T02:54:58.957Z,0
2019-03-25T02:55:59.407Z,0
2019-03-25T02:56:59.161Z,0
2019-03-25T02:57:59.378Z,0
2019-03-25T02:58:59.341Z,0
2019-03-25T02:59:59.342Z,0
2019-03-25T03:00:59.369Z,0
2019-03-25T03:01:59.287Z,0
2019-03-25T03:02:59.270Z,0
2019-03-25T03:03:59.252Z,0
2019-03-25T03:04:59.010Z,0
2019-03-25T03:05:59.004Z,0
2019-03-25T03:06:59.210Z,0
2019-03-25T03:07:59.199Z,0
2019-03-25T03:08:59.202Z,0
2019-03-25T03:09:58.936Z,0
2019-03-25T03:10:59.192Z,0
2019-03-25T03:11:59.122Z,0
2019-03-25T03:12:58.859Z,0
2019-03-25T03:13:59.096Z,0
2019-03-25T03:14:58.572Z,0
2019-03-25T03:15:58.811Z,0
2019-03-25T03:16:59.032Z,0
2019-03-25T03:17:59.107Z,0
2019-03-25T03:18:59.025Z,0
2019-03-25T03:20:02.408Z,0
2019-03-25T03:20:58.961Z,0
2019-03-25T03:21:58.996Z,0
2019-03-25T03:22:58.942Z,0
2019-03-25T03:23:58.697Z,0
2019-03-25T03:24:58.900Z,0
2019-03-25T03:26:06.980Z,0
2019-03-25T03:26:58.856Z,0
2019-03-25T03:27:58.837Z,0
2019-03-25T03:28:58.844Z,0
2019-03-25T03:29:58.804Z,0
2019-03-25T03:30:58.824Z,0
2019-03-25T03:31:58.801Z,0
2019-03-25T03:32:58.917Z,0
2019-03-25T03:33:58.791Z,0
2019-03-25T03:34:58.738Z,0
2019-03-25T03:35:58.733Z,0
2019-03-25T03:36:58.443Z,0
2019-03-25T03:37:58.683Z,0
2019-03-25T03:38:58.790Z,0
2019-03-25T03:39:58.634Z,0
2019-03-25T03:40:58.640Z,0
2019-03-25T03:41:58.607Z,0
2019-03-25T03:42:58.103Z,0
2019-03-25T03:44:00.551Z,0
2019-03-25T03:44:58.547Z,0
2019-03-25T03:45:58.546Z,0
2019-03-25T03:46:58.514Z,0
2019-03-25T03:47:58.506Z,0
2019-03-25T03:48:58.231Z,0
2019-03-25T03:49:58.485Z,0
2019-03-25T03:50:58.443Z,0
2019-03-25T03:51:58.683Z,0
2019-03-25T03:52:58.413Z,0
2019-03-25T03:53:58.396Z,0
2019-03-25T03:54:58.377Z,0
2019-03-25T03:56:14.568Z,0
2019-03-25T03:56:58.590Z,0
2019-03-25T03:57:58.326Z,0
2019-03-25T03:58:58.335Z,0
2019-03-25T03:59:58.305Z,0
2019-03-25T04:00:58.415Z,0
2019-03-25T04:01:58.024Z,0
2019-03-25T04:02:58.248Z,0
2019-03-25T04:03:58.238Z,0
2019-03-25T04:04:58.216Z,0
2019-03-25T04:05:58.189Z,0
2019-03-25T04:06:57.684Z,0
2019-03-25T04:07:58.171Z,0
2019-03-25T04:08:57.892Z,0
2019-03-25T04:09:58.125Z,0
2019-03-25T04:10:58.121Z,0
2019-03-25T04:11:58.086Z,0
2019-03-25T04:12:57.922Z,0
2019-03-25T04:13:57.804Z,0
2019-03-25T04:14:58.037Z,0
2019-03-25T04:16:01.170Z,0
2019-03-25T04:16:58.028Z,0
2019-03-25T04:17:58.035Z,0
2019-03-25T04:18:57.735Z,0
2019-03-25T04:19:57.966Z,0
2019-03-25T04:20:57.936Z,0
2019-03-25T04:21:57.931Z,0
2019-03-25T04:22:57.894Z,0
2019-03-25T04:23:57.906Z,0
2019-03-25T04:24:57.721Z,0
2019-03-25T04:25:57.378Z,0
2019-03-25T04:26:57.585Z,0
2019-03-25T04:27:57.850Z,0
2019-03-25T04:28:57.571Z,0
2019-03-25T04:29:57.869Z,0
2019-03-25T04:30:57.753Z,0
2019-03-25T04:31:57.765Z,0
2019-03-25T04:32:57.481Z,0
2019-03-25T04:33:57.701Z,0
2019-03-25T04:34:57.714Z,0
2019-03-25T04:35:57.670Z,0
2019-03-25T04:36:57.664Z,0
2019-03-25T04:37:59.055Z,0
2019-03-25T04:38:57.627Z,0
2019-03-25T04:39:57.685Z,0
2019-03-25T04:40:57.600Z,0
2019-03-25T04:41:57.581Z,0
2019-03-25T04:42:57.552Z,0
2019-03-25T04:43:59.133Z,0
2019-03-25T04:44:57.560Z,0
2019-03-25T04:45:57.257Z,0
2019-03-25T04:46:57.478Z,0
2019-03-25T04:47:57.207Z,0
2019-03-25T04:48:57.445Z,0
2019-03-25T04:49:57.425Z,0
2019-03-25T04:50:57.158Z,0
2019-03-25T04:51:57.392Z,0
2019-03-25T04:52:57.271Z,0
2019-03-25T04:53:57.355Z,0
2019-03-25T04:54:57.347Z,0
2019-03-25T04:55:57.336Z,0
2019-03-25T04:56:57.311Z,0
2019-03-25T04:57:57.282Z,0
2019-03-25T04:58:57.019Z,0
2019-03-25T04:59:57.248Z,0
2019-03-25T05:00:56.750Z,0
2019-03-25T05:01:57.347Z,0
2019-03-25T05:02:57.209Z,5
2019-03-25T05:03:57.180Z,5
2019-03-25T05:04:57.164Z,5
2019-03-25T05:05:56.658Z,5
2019-03-25T05:06:56.406Z,5
2019-03-25T05:07:56.863Z,5
2019-03-25T05:08:57.092Z,5
2019-03-25T05:09:57.072Z,10
2019-03-25T05:10:57.057Z,10
2019-03-25T05:11:56.795Z,10
2019-03-25T05:12:57.030Z,10
2019-03-25T05:13:56.764Z,10
2019-03-25T05:14:57.029Z,10
2019-03-25T05:15:56.971Z,15
2019-03-25T05:16:56.965Z,15
2019-03-25T05:17:56.933Z,15
2019-03-25T05:18:56.922Z,15
2019-03-25T05:19:56.656Z,15
2019-03-25T05:20:56.641Z,15
2019-03-25T05:21:56.868Z,20
2019-03-25T05:22:56.850Z,20
2019-03-25T05:23:56.840Z,20
2019-03-25T05:24:56.820Z,20
2019-03-25T05:25:56.803Z,20
2019-03-25T05:27:00.588Z,25
2019-03-25T05:27:56.517Z,20
2019-03-25T05:28:56.749Z,20
2019-03-25T05:29:56.786Z,25
2019-03-25T05:30:56.724Z,25
2019-03-25T05:31:56.696Z,25
2019-03-25T05:32:56.681Z,25
2019-03-25T05:33:56.660Z,30
2019-03-25T05:34:56.412Z,30
2019-03-25T05:35:56.624Z,30
2019-03-25T05:36:56.610Z,30
2019-03-25T05:37:56.405Z,30
2019-03-25T05:38:56.575Z,35
2019-03-25T05:39:56.311Z,35
2019-03-25T05:40:56.540Z,35
2019-03-25T05:41:56.528Z,40
2019-03-25T05:42:56.020Z,45
2019-03-25T05:43:56.490Z,45
2019-03-25T05:44:56.479Z,50
2019-03-25T05:45:56.218Z,50
2019-03-25T05:46:56.442Z,55
2019-03-25T05:47:56.422Z,65
2019-03-25T05:48:56.410Z,65
2019-03-25T05:49:56.388Z,65
2019-03-25T05:50:56.367Z,65
2019-03-25T05:51:56.367Z,60
2019-03-25T05:52:56.336Z,50
2019-03-25T05:53:56.080Z,45
2019-03-25T05:54:56.302Z,45
2019-03-25T05:55:56.043Z,50
2019-03-25T05:57:06.691Z,50
2019-03-25T05:57:56.251Z,55
2019-03-25T05:58:56.234Z,60
2019-03-25T05:59:56.214Z,75
2019-03-25T06:00:56.199Z,80
2019-03-25T06:01:56.182Z,90
2019-03-25T06:02:56.171Z,100
2019-03-25T06:03:56.146Z,100
2019-03-25T06:04:56.134Z,100
2019-03-25T06:05:56.112Z,100
2019-03-25T06:06:56.998Z,105
2019-03-25T06:07:56.094Z,100
2019-03-25T06:08:56.079Z,100
2019-03-25T06:09:55.797Z,100
2019-03-25T06:10:56.058Z,100
2019-03-25T06:11:55.769Z,90
2019-03-25T06:12:55.997Z,85
2019-03-25T06:13:55.991Z,80
2019-03-25T06:14:55.744Z,75
2019-03-25T06:15:55.946Z,70
2019-03-25T06:16:55.678Z,70
2019-03-25T06:17:55.963Z,75
2019-03-25T06:18:55.400Z,80
2019-03-25T06:19:55.875Z,85
2019-03-25T06:20:55.371Z,85
2019-03-25T06:21:55.602Z,80
2019-03-25T06:22:55.831Z,85
2019-03-25T06:23:55.570Z,95
2019-03-25T06:24:55.791Z,100
2019-03-25T06:25:55.536Z,85
2019-03-25T06:26:55.516Z,85
2019-03-25T06:27:55.745Z,75
2019-03-25T06:28:55.751Z,70
2019-03-25T06:29:55.721Z,65
2019-03-25T06:30:55.441Z,60
2019-03-25T06:31:55.438Z,60
2019-03-25T06:32:55.653Z,55
2019-03-25T06:33:55.643Z,60
2019-03-25T06:34:55.377Z,65
2019-03-25T06:35:55.644Z,70
2019-03-25T06:36:55.665Z,70
2019-03-25T06:37:55.569Z,70
2019-03-25T06:38:55.706Z,70
2019-03-25T06:39:55.290Z,70
2019-03-25T06:40:56.452Z,70
2019-03-25T06:41:55.506Z,65
2019-03-25T06:42:55.249Z,60
2019-03-25T06:43:55.270Z,65
2019-03-25T06:44:55.458Z,85
2019-03-25T06:45:55.439Z,105
2019-03-25T06:46:55.429Z,105
2019-03-25T06:47:55.404Z,110
2019-03-25T06:48:55.387Z,105
2019-03-25T06:49:55.377Z,95
2019-03-25T06:50:55.358Z,90
2019-03-25T06:51:55.139Z,95
2019-03-25T06:52:55.320Z,110
2019-03-25T06:53:55.305Z,110
2019-03-25T06:54:55.291Z,100
2019-03-25T06:55:55.277Z,95
2019-03-25T06:56:55.061Z,95
2019-03-25T06:57:55.250Z,100
2019-03-25T06:58:55.221Z,105
2019-03-25T06:59:55.216Z,90
2019-03-25T07:00:55.187Z,85
2019-03-25T07:01:55.176Z,85
2019-03-25T07:02:54.907Z,85
2019-03-25T07:03:55.144Z,75
2019-03-25T07:04:55.137Z,70
2019-03-25T07:05:55.113Z,70
2019-03-25T07:06:55.092Z,75
2019-03-25T07:07:55.075Z,80
2019-03-25T07:08:55.060Z,75
2019-03-25T07:09:55.036Z,70
2019-03-25T07:10:55.022Z,65
2019-03-25T07:11:55.019Z,70
2019-03-25T07:12:54.786Z,60
2019-03-25T07:13:54.980Z,55
2019-03-25T07:14:54.736Z,60
2019-03-25T07:15:54.704Z,70
2019-03-25T07:16:54.927Z,70
2019-03-25T07:17:54.910Z,65
2019-03-25T07:18:54.909Z,60
2019-03-25T07:19:54.877Z,65
2019-03-25T07:20:54.617Z,70
2019-03-25T07:21:54.847Z,65
2019-03-25T07:22:54.834Z,65
2019-03-25T07:23:54.572Z,65
2019-03-25T07:24:54.551Z,65
2019-03-25T07:25:54.541Z,60
2019-03-25T07:26:55.574Z,85
2019-03-25T07:27:54.750Z,115
2019-03-25T07:28:54.732Z,125
2019-03-25T07:29:54.711Z,110
2019-03-25T07:30:54.696Z,90
2019-03-25T07:31:54.438Z,95
2019-03-25T07:32:54.670Z,105
2019-03-25T07:33:54.653Z,105
2019-03-25T07:34:54.386Z,160
2019-03-25T07:35:54.614Z,225
2019-03-25T07:36:54.592Z,245
2019-03-25T07:37:54.583Z,245
2019-03-25T07:38:54.321Z,220
2019-03-25T07:39:54.553Z,205
2019-03-25T07:40:54.531Z,180
2019-03-25T07:41:54.512Z,155
2019-03-25T07:42:54.501Z,120
2019-03-25T07:43:54.244Z,95
2019-03-25T07:44:54.470Z,80
2019-03-25T07:45:54.451Z,75
2019-03-25T07:46:54.188Z,80
2019-03-25T07:47:54.419Z,75
2019-03-25T07:48:54.403Z,70
2019-03-25T07:49:54.380Z,70
2019-03-25T07:50:54.367Z,70
2019-03-25T07:51:54.149Z,75
2019-03-25T07:52:54.091Z,80
2019-03-25T07:53:55.852Z,85
2019-03-25T07:54:53.892Z,85
2019-03-25T07:55:54.325Z,75
2019-03-25T07:56:54.368Z,55
2019-03-25T07:57:58.191Z,40
2019-03-25T07:58:54.297Z,35
2019-03-25T07:59:54.014Z,40
2019-03-25T08:00:54.265Z,50
2019-03-25T08:01:54.037Z,50
2019-03-25T08:02:54.287Z,50
2019-03-25T08:03:54.183Z,45
2019-03-25T08:04:54.022Z,50
2019-03-25T08:05:54.151Z,70
2019-03-25T08:06:54.129Z,60
2019-03-25T08:07:54.166Z,65
2019-03-25T08:09:05.686Z,75
2019-03-25T08:09:54.948Z,85
2019-03-25T08:10:54.174Z,90
2019-03-25T08:11:54.099Z,80
2019-03-25T08:12:54.121Z,80
2019-03-25T08:13:53.791Z,95
2019-03-25T08:14:53.807Z,105
2019-03-25T08:15:53.767Z,100
2019-03-25T08:16:53.700Z,75
2019-03-25T08:17:53.679Z,70
2019-03-25T08:18:53.914Z,65
2019-03-25T08:19:53.893Z,60
2019-03-25T08:20:53.638Z,60
2019-03-25T08:21:53.623Z,45
2019-03-25T08:22:53.840Z,60
2019-03-25T08:23:53.827Z,60
2019-03-25T08:24:53.571Z,70
2019-03-25T08:25:53.797Z,70
2019-03-25T08:26:53.779Z,115
2019-03-25T08:28:04.506Z,85
2019-03-25T08:28:53.266Z,85
2019-03-25T08:29:53.732Z,70
2019-03-25T08:30:53.721Z,60
2019-03-25T08:31:53.733Z,80
2019-03-25T08:32:53.433Z,70
2019-03-25T08:33:53.410Z,80
2019-03-25T08:34:53.644Z,80
2019-03-25T08:35:53.381Z,70
2019-03-25T08:36:53.365Z,80
2019-03-25T08:37:53.347Z,75
2019-03-25T08:38:53.344Z,70
2019-03-25T08:39:53.569Z,80
2019-03-25T08:40:53.552Z,75
2019-03-25T08:41:53.532Z,90
2019-03-25T08:42:53.519Z,125
2019-03-25T08:43:55.020Z,135
2019-03-25T08:44:53.480Z,130
2019-03-25T08:45:53.467Z,85
2019-03-25T08:46:53.200Z,70
2019-03-25T08:47:53.431Z,75
2019-03-25T08:48:53.408Z,70
2019-03-25T08:49:53.397Z,65
2019-03-25T08:50:52.910Z,80
2019-03-25T08:51:53.170Z,65
2019-03-25T08:52:53.108Z,70
2019-03-25T08:53:53.330Z,60
2019-03-25T08:54:53.079Z,60
2019-03-25T08:55:53.303Z,55
2019-03-25T08:56:52.822Z,40
2019-03-25T08:57:53.264Z,35
2019-03-25T08:58:52.996Z,30
2019-03-25T08:59:53.228Z,25
2019-03-25T09:00:52.968Z,55
2019-03-25T09:01:53.196Z,85
2019-03-25T09:02:52.938Z,95
2019-03-25T09:03:52.917Z,140
2019-03-25T09:04:53.155Z,180
2019-03-25T09:05:53.137Z,215
2019-03-25T09:06:55.087Z,245
2019-03-25T09:07:53.100Z,230
2019-03-25T09:08:52.831Z,180
2019-03-25T09:09:53.062Z,210
2019-03-25T09:10:53.054Z,220
2019-03-25T09:11:54.266Z,245
2019-03-25T09:12:53.009Z,220
2019-03-25T09:13:52.995Z,160
2019-03-25T09:14:52.976Z,235
2019-03-25T09:15:52.958Z,305
2019-03-25T09:16:52.997Z,330
2019-03-25T09:17:52.929Z,280
2019-03-25T09:18:52.915Z,140
2019-03-25T09:19:52.893Z,155
2019-03-25T09:20:52.876Z,155
2019-03-25T09:21:52.861Z,115
2019-03-25T09:22:52.354Z,135
2019-03-25T09:23:52.827Z,135
2019-03-25T09:24:52.815Z,120
2019-03-25T09:25:52.800Z,110
2019-03-25T09:26:52.785Z,80
2019-03-25T09:27:52.583Z,60
2019-03-25T09:28:52.552Z,55
2019-03-25T09:29:52.491Z,65
2019-03-25T09:30:52.715Z,95
2019-03-25T09:31:52.460Z,110
2019-03-25T09:32:52.688Z,85
2019-03-25T09:33:52.426Z,95
2019-03-25T09:34:52.797Z,95
2019-03-25T09:35:52.537Z,110
2019-03-25T09:36:52.622Z,165
2019-03-25T09:37:55.134Z,245
2019-03-25T09:38:52.100Z,245
2019-03-25T09:39:52.078Z,175
2019-03-25T09:40:52.548Z,190
2019-03-25T09:41:52.549Z,160
2019-03-25T09:42:52.520Z,105
2019-03-25T09:43:52.282Z,70
2019-03-25T09:44:52.245Z,130
2019-03-25T09:45:52.486Z,170
2019-03-25T09:46:52.253Z,130
2019-03-25T09:47:52.450Z,155
2019-03-25T09:48:52.427Z,205
2019-03-25T09:49:52.437Z,235
2019-03-25T09:50:52.398Z,275
2019-03-25T09:51:54.997Z,330
2019-03-25T09:52:52.115Z,345
2019-03-25T09:53:52.341Z,330
2019-03-25T09:54:52.326Z,380
2019-03-25T09:55:52.068Z,360
2019-03-25T09:56:52.300Z,285
2019-03-25T09:57:52.280Z,270
2019-03-25T09:58:52.039Z,300
2019-03-25T09:59:52.261Z,300
2019-03-25T10:00:54.490Z,330
2019-03-25T10:01:52.274Z,335
2019-03-25T10:02:52.204Z,345
2019-03-25T10:03:52.201Z,350
2019-03-25T10:04:51.928Z,300
2019-03-25T10:05:52.155Z,305
2019-03-25T10:06:52.144Z,340
2019-03-25T10:07:52.133Z,325
2019-03-25T10:08:52.110Z,305
2019-03-25T10:09:52.101Z,330
2019-03-25T10:10:51.857Z,355
2019-03-25T10:11:52.067Z,290
2019-03-25T10:12:52.058Z,190
2019-03-25T10:13:51.805Z,170
2019-03-25T10:14:52.092Z,150
2019-03-25T10:15:52.008Z,130
2019-03-25T10:16:51.991Z,125
2019-03-25T10:17:51.988Z,185
2019-03-25T10:18:51.718Z,275
2019-03-25T10:19:51.701Z,275
2019-03-25T10:20:51.696Z,240
2019-03-25T10:21:51.937Z,215
2019-03-25T10:22:51.908Z,205
2019-03-25T10:23:52.090Z,215
2019-03-25T10:24:51.874Z,230
2019-03-25T10:25:51.615Z,260
2019-03-25T10:26:51.858Z,270
2019-03-25T10:27:51.828Z,275
2019-03-25T10:28:58.044Z,225
2019-03-25T10:29:51.836Z,210
2019-03-25T10:30:51.546Z,215
2019-03-25T10:31:51.772Z,215
2019-03-25T10:32:51.753Z,235
2019-03-25T10:33:51.799Z,235
2019-03-25T10:34:51.728Z,235
2019-03-25T10:35:51.719Z,220
2019-03-25T10:36:51.709Z,185
2019-03-25T10:37:51.202Z,195
2019-03-25T10:38:51.665Z,235
2019-03-25T10:39:51.409Z,190
2019-03-25T10:40:51.636Z,130
2019-03-25T10:41:51.621Z,125
2019-03-25T10:42:51.130Z,115
2019-03-25T10:43:51.596Z,140
2019-03-25T10:44:51.333Z,195
2019-03-25T10:45:51.558Z,250
2019-03-25T10:46:51.558Z,300
2019-03-25T10:47:51.530Z,315
2019-03-25T10:48:51.364Z,325
2019-03-25T10:49:51.255Z,340
2019-03-25T10:50:51.494Z,415
2019-03-25T10:51:51.223Z,405
2019-03-25T10:52:51.208Z,355
2019-03-25T10:53:51.210Z,350
2019-03-25T10:54:52.168Z,330
2019-03-25T10:55:51.172Z,315
2019-03-25T10:56:58.851Z,265
2019-03-25T10:57:51.380Z,285
2019-03-25T10:59:00.589Z,330
2019-03-25T10:59:51.351Z,320
2019-03-25T11:00:51.339Z,345
2019-03-25T11:01:51.319Z,425
2019-03-25T11:02:51.316Z,400
2019-03-25T11:03:51.293Z,350
2019-03-25T11:04:51.280Z,360
2019-03-25T11:05:51.035Z,395
2019-03-25T11:06:51.016Z,385
2019-03-25T11:07:51.771Z,355
2019-03-25T11:08:50.977Z,295
2019-03-25T11:09:50.975Z,240
2019-03-25T11:10:51.191Z,225
2019-03-25T11:11:50.932Z,235
2019-03-25T11:12:50.921Z,275
2019-03-25T11:13:51.154Z,260
2019-03-25T11:14:51.148Z,235
2019-03-25T11:15:51.134Z,205
2019-03-25T11:16:50.863Z,220
2019-03-25T11:17:51.119Z,250
2019-03-25T11:18:50.590Z,280
2019-03-25T11:19:51.113Z,300
2019-03-25T11:20:51.097Z,295
2019-03-25T11:21:51.058Z,205
2019-03-25T11:22:51.046Z,155
2019-03-25T11:23:51.024Z,145
2019-03-25T11:24:51.005Z,145
2019-03-25T11:25:50.986Z,190
2019-03-25T11:26:50.724Z,185
2019-03-25T11:28:01.374Z,145
2019-03-25T11:28:50.940Z,135
2019-03-25T11:29:50.932Z,145
2019-03-25T11:30:50.915Z,150
2019-03-25T11:31:50.651Z,160
2019-03-25T11:32:50.887Z,215
2019-03-25T11:33:50.873Z,265
2019-03-25T11:34:50.878Z,265
2019-03-25T11:35:50.606Z,245
2019-03-25T11:36:50.833Z,280
2019-03-25T11:37:50.823Z,305
2019-03-25T11:38:50.810Z,350
2019-03-25T11:39:50.550Z,345
2019-03-25T11:40:50.593Z,295
2019-03-25T11:41:50.770Z,255
2019-03-25T11:42:50.766Z,235
2019-03-25T11:43:50.772Z,220
2019-03-25T11:44:50.750Z,195
2019-03-25T11:45:50.724Z,185
2019-03-25T11:46:50.203Z,205
2019-03-25T11:47:50.452Z,230
2019-03-25T11:48:50.691Z,270
2019-03-25T11:49:51.733Z,295
2019-03-25T11:50:50.645Z,300
2019-03-25T11:51:50.629Z,325
2019-03-25T11:52:50.667Z,325
2019-03-25T11:53:50.610Z,305
2019-03-25T11:54:50.591Z,260
2019-03-25T11:55:50.572Z,220
2019-03-25T11:56:50.568Z,200
2019-03-25T11:57:50.546Z,170
2019-03-25T11:58:50.567Z,140
2019-03-25T11:59:50.523Z,145
2019-03-25T12:00:50.268Z,150
2019-03-25T12:01:50.507Z,190
2019-03-25T12:02:50.489Z,210
2019-03-25T12:03:50.469Z,205
2019-03-25T12:04:50.466Z,195
2019-03-25T12:05:50.193Z,165
2019-03-25T12:06:50.187Z,150
2019-03-25T12:07:50.213Z,160
2019-03-25T12:08:50.164Z,190
2019-03-25T12:09:51.168Z,225
2019-03-25T12:10:50.413Z,260
2019-03-25T12:11:50.409Z,275
2019-03-25T12:12:49.852Z,275
2019-03-25T12:13:50.351Z,290
2019-03-25T12:14:50.315Z,335
2019-03-25T12:15:50.304Z,310
2019-03-25T12:16:50.292Z,290
2019-03-25T12:17:50.037Z,285
2019-03-25T12:18:50.263Z,320
2019-03-25T12:19:50.259Z,355
2019-03-25T12:20:49.986Z,380
2019-03-25T12:21:50.225Z,370
2019-03-25T12:22:50.218Z,380
2019-03-25T12:23:49.953Z,385
2019-03-25T12:24:50.185Z,380
2019-03-25T12:25:50.177Z,360
2019-03-25T12:26:49.917Z,355
2019-03-25T12:27:49.920Z,355
2019-03-25T12:28:50.134Z,350
2019-03-25T12:29:49.647Z,350
2019-03-25T12:30:50.115Z,350
2019-03-25T12:31:50.099Z,355
2019-03-25T12:32:50.084Z,335
2019-03-25T12:33:49.826Z,315
2019-03-25T12:34:50.410Z,305
2019-03-25T12:35:49.796Z,305
2019-03-25T12:36:50.040Z,310
2019-03-25T12:37:49.837Z,320
2019-03-25T12:38:50.009Z,310
2019-03-25T12:39:50.003Z,310
2019-03-25T12:40:49.982Z,310
2019-03-25T12:41:49.735Z,320
2019-03-25T12:42:49.957Z,335
2019-03-25T12:43:49.950Z,345
2019-03-25T12:44:49.689Z,345
2019-03-25T12:45:49.921Z,330
2019-03-25T12:46:49.911Z,330
2019-03-25T12:47:49.896Z,290
2019-03-25T12:48:49.642Z,270
2019-03-25T12:49:49.621Z,275
2019-03-25T12:50:49.611Z,265
2019-03-25T12:51:50.992Z,245
2019-03-25T12:52:49.581Z,225
2019-03-25T12:53:49.812Z,235
2019-03-25T12:54:49.556Z,235
2019-03-25T12:55:49.545Z,225
2019-03-25T12:56:49.786Z,220
2019-03-25T12:57:49.885Z,220
2019-03-25T12:58:49.754Z,225
2019-03-25T12:59:51.146Z,245
2019-03-25T13:00:49.741Z,250
2019-03-25T13:01:59.766Z,265
2019-03-25T13:02:49.455Z,275
2019-03-25T13:03:50.077Z,290
2019-03-25T13:04:49.434Z,290
2019-03-25T13:05:49.702Z,260
2019-03-25T13:06:49.656Z,225
2019-03-25T13:07:49.389Z,200
2019-03-25T13:08:49.625Z,195
2019-03-25T13:09:49.379Z,195
2019-03-25T13:10:49.627Z,190
2019-03-25T13:11:49.589Z,180
2019-03-25T13:12:49.572Z,170
2019-03-25T13:13:49.593Z,165
2019-03-25T13:14:49.546Z,165
2019-03-25T13:15:49.539Z,165
2019-03-25T13:16:49.523Z,155
2019-03-25T13:17:49.522Z,135
2019-03-25T13:18:49.252Z,105
2019-03-25T13:19:49.489Z,75
2019-03-25T13:20:49.487Z,65
2019-03-25T13:21:49.469Z,55
2019-03-25T13:22:49.199Z,50
2019-03-25T13:23:49.465Z,50
2019-03-25T13:24:49.188Z,65
2019-03-25T13:25:49.428Z,75
2019-03-25T13:26:49.403Z,90
2019-03-25T13:27:49.383Z,95
2019-03-25T13:28:49.370Z,100
2019-03-25T13:29:59.533Z,100
2019-03-25T13:30:49.153Z,90
2019-03-25T13:31:48.830Z,85
2019-03-25T13:32:49.309Z,75
2019-03-25T13:33:49.843Z,50
2019-03-25T13:34:49.321Z,70
2019-03-25T13:35:49.271Z,70
2019-03-25T13:36:49.262Z,65
2019-03-25T13:37:49.245Z,50
2019-03-25T13:38:49.224Z,40
2019-03-25T13:39:49.214Z,45
2019-03-25T13:40:49.200Z,60
2019-03-25T13:41:49.183Z,80
2019-03-25T13:42:49.185Z,125
2019-03-25T13:43:50.973Z,185
2019-03-25T13:44:49.129Z,235
2019-03-25T13:45:48.890Z,260
2019-03-25T13:46:48.854Z,270
2019-03-25T13:47:49.086Z,260
2019-03-25T13:48:49.076Z,250
2019-03-25T13:49:48.822Z,235
2019-03-25T13:50:49.046Z,220
2019-03-25T13:51:49.026Z,205
2019-03-25T13:52:48.770Z,185
2019-03-25T13:53:48.748Z,150
2019-03-25T13:54:48.986Z,100
2019-03-25T13:55:48.968Z,95
2019-03-25T13:56:48.947Z,90
2019-03-25T13:57:48.929Z,75
2019-03-25T13:58:48.923Z,100
2019-03-25T13:59:48.904Z,135
2019-03-25T14:00:48.893Z,130
2019-03-25T14:01:48.901Z,85
2019-03-25T14:02:48.853Z,80
2019-03-25T14:03:48.850Z,70
2019-03-25T14:04:48.819Z,65
2019-03-25T14:05:48.804Z,75
2019-03-25T14:06:48.791Z,90
2019-03-25T14:07:48.519Z,100
2019-03-25T14:08:48.510Z,95
2019-03-25T14:09:48.747Z,80
2019-03-25T14:10:48.478Z,90
2019-03-25T14:11:48.706Z,95
2019-03-25T14:12:48.684Z,80
2019-03-25T14:14:00.225Z,65
2019-03-25T14:14:48.679Z,60